sensor_id;sensor_type;location;lat;lon;timestamp;pressure;altitude;pressure_sealevel;temperature;humidity
35551;BME280;21655;46.056;13.616;2023-04-27T00:01:12;100519.44;;;10.78;100.00
35551;BME280;21655;46.056;13.616;2023-04-27T00:03:38;100515.97;;;10.84;100.00
35551;BME280;21655;46.056;13.616;2023-04-27T00:06:04;100509.38;;;10.85;100.00
35551;BME280;21655;46.056;13.616;2023-04-27T00:08:29;100509.91;;;10.80;100.00
35551;BME280;21655;46.056;13.616;2023-04-27T00:10:57;100507.16;;;10.80;100.00
35551;BME280;21655;46.056;13.616;2023-04-27T00:13:23;100515.47;;;10.80;100.00
35551;BME280;21655;46.056;13.616;2023-04-27T00:15:48;100506.31;;;10.72;100.00
35551;BME280;21655;46.056;13.616;2023-04-27T00:18:14;100505.63;;;10.70;100.00
35551;BME280;21655;46.056;13.616;2023-04-27T00:20:39;100500.97;;;10.62;100.00
35551;BME280;21655;46.056;13.616;2023-04-27T00:23:05;100504.78;;;10.61;100.00
35551;BME280;21655;46.056;13.616;2023-04-27T00:25:31;100502.16;;;10.60;100.00
35551;BME280;21655;46.056;13.616;2023-04-27T00:27:56;100499.59;;;10.58;100.00
35551;BME280;21655;46.056;13.616;2023-04-27T00:30:22;100501.47;;;10.58;100.00
35551;BME280;21655;46.056;13.616;2023-04-27T00:32:47;100500.28;;;10.60;100.00
35551;BME280;21655;46.056;13.616;2023-04-27T00:35:12;100500.63;;;10.57;100.00
35551;BME280;21655;46.056;13.616;2023-04-27T00:37:38;100497.66;;;10.59;100.00
35551;BME280;21655;46.056;13.616;2023-04-27T00:40:04;100502.31;;;10.66;100.00
35551;BME280;21655;46.056;13.616;2023-04-27T00:42:32;100500.78;;;10.64;100.00
35551;BME280;21655;46.056;13.616;2023-04-27T00:44:58;100497.66;;;10.67;100.00
35551;BME280;21655;46.056;13.616;2023-04-27T00:47:24;100497.81;;;10.65;100.00
35551;BME280;21655;46.056;13.616;2023-04-27T00:49:50;100498.88;;;10.72;100.00
35551;BME280;21655;46.056;13.616;2023-04-27T00:52:16;100492.59;;;10.70;100.00
35551;BME280;21655;46.056;13.616;2023-04-27T00:54:41;100502.84;;;10.70;100.00
35551;BME280;21655;46.056;13.616;2023-04-27T00:57:07;100503.00;;;10.76;100.00
35551;BME280;21655;46.056;13.616;2023-04-27T00:59:33;100502.63;;;10.79;100.00
35551;BME280;21655;46.056;13.616;2023-04-27T01:01:59;100503.53;;;10.80;100.00
35551;BME280;21655;46.056;13.616;2023-04-27T01:04:25;100508.19;;;10.79;100.00
35551;BME280;21655;46.056;13.616;2023-04-27T01:06:51;100506.09;;;10.81;100.00
35551;BME280;21655;46.056;13.616;2023-04-27T01:09:16;100505.06;;;10.82;100.00
35551;BME280;21655;46.056;13.616;2023-04-27T01:11:47;100506.78;;;10.83;100.00
35551;BME280;21655;46.056;13.616;2023-04-27T01:14:13;100500.41;;;10.75;100.00
35551;BME280;21655;46.056;13.616;2023-04-27T01:16:38;100507.66;;;10.76;100.00
35551;BME280;21655;46.056;13.616;2023-04-27T01:19:06;100501.97;;;10.77;100.00
35551;BME280;21655;46.056;13.616;2023-04-27T01:21:32;100503.16;;;10.75;100.00
35551;BME280;21655;46.056;13.616;2023-04-27T01:23:57;100503.00;;;10.76;100.00
35551;BME280;21655;46.056;13.616;2023-04-27T01:26:22;100502.69;;;10.71;100.00
35551;BME280;21655;46.056;13.616;2023-04-27T01:28:48;100500.28;;;10.60;100.00
35551;BME280;21655;46.056;13.616;2023-04-27T01:31:13;100502.53;;;10.65;100.00
35551;BME280;21655;46.056;13.616;2023-04-27T01:33:40;100499.06;;;10.63;100.00
35551;BME280;21655;46.056;13.616;2023-04-27T01:36:06;100509.63;;;10.59;100.00
35551;BME280;21655;46.056;13.616;2023-04-27T01:38:33;100520.22;;;10.64;100.00
35551;BME280;21655;46.056;13.616;2023-04-27T01:40:59;100516.88;;;10.68;100.00
35551;BME280;21655;46.056;13.616;2023-04-27T01:43:29;100513.94;;;10.62;100.00
35551;BME280;21655;46.056;13.616;2023-04-27T01:46:03;100512.94;;;10.63;100.00
35551;BME280;21655;46.056;13.616;2023-04-27T01:48:29;100516.03;;;10.68;100.00
35551;BME280;21655;46.056;13.616;2023-04-27T01:50:54;100525.88;;;10.70;100.00
35551;BME280;21655;46.056;13.616;2023-04-27T01:53:20;100526.59;;;10.72;100.00
35551;BME280;21655;46.056;13.616;2023-04-27T01:55:46;100525.34;;;10.75;100.00
35551;BME280;21655;46.056;13.616;2023-04-27T01:58:11;100525.41;;;10.59;100.00
35551;BME280;21655;46.056;13.616;2023-04-27T02:00:36;100526.09;;;10.61;100.00
35551;BME280;21655;46.056;13.616;2023-04-27T02:03:02;100520.69;;;10.67;100.00
35551;BME280;21655;46.056;13.616;2023-04-27T02:05:27;100526.25;;;10.75;100.00
35551;BME280;21655;46.056;13.616;2023-04-27T02:07:53;100528.50;;;10.72;100.00
35551;BME280;21655;46.056;13.616;2023-04-27T02:10:18;100535.28;;;10.61;100.00
35551;BME280;21655;46.056;13.616;2023-04-27T02:12:46;100527.97;;;10.68;100.00
35551;BME280;21655;46.056;13.616;2023-04-27T02:15:11;100538.38;;;10.74;100.00
35551;BME280;21655;46.056;13.616;2023-04-27T02:17:37;100538.19;;;10.84;100.00
35551;BME280;21655;46.056;13.616;2023-04-27T02:20:04;100535.41;;;10.76;100.00
35551;BME280;21655;46.056;13.616;2023-04-27T02:22:31;100538.19;;;10.84;100.00
35551;BME280;21655;46.056;13.616;2023-04-27T02:24:56;100546.66;;;10.82;100.00
35551;BME280;21655;46.056;13.616;2023-04-27T02:27:22;100548.59;;;10.82;100.00
35551;BME280;21655;46.056;13.616;2023-04-27T02:29:47;100538.72;;;10.63;100.00
35551;BME280;21655;46.056;13.616;2023-04-27T02:32:12;100532.66;;;10.68;100.00
35551;BME280;21655;46.056;13.616;2023-04-27T02:34:38;100537.88;;;10.63;100.00
35551;BME280;21655;46.056;13.616;2023-04-27T02:37:03;100531.78;;;10.67;100.00
35551;BME280;21655;46.056;13.616;2023-04-27T02:39:29;100537.16;;;10.69;100.00
35551;BME280;21655;46.056;13.616;2023-04-27T02:41:54;100532.47;;;10.77;100.00
35551;BME280;21655;46.056;13.616;2023-04-27T02:44:20;100527.09;;;10.84;100.00
35551;BME280;21655;46.056;13.616;2023-04-27T02:46:45;100536.28;;;10.76;100.00
35551;BME280;21655;46.056;13.616;2023-04-27T02:49:10;100533.66;;;10.83;100.00
35551;BME280;21655;46.056;13.616;2023-04-27T02:51:36;100538.69;;;10.79;100.00
35551;BME280;21655;46.056;13.616;2023-04-27T02:54:01;100535.25;;;10.69;100.00
35551;BME280;21655;46.056;13.616;2023-04-27T02:56:26;100527.97;;;10.68;100.00
35551;BME280;21655;46.056;13.616;2023-04-27T02:58:52;100532.16;;;10.72;100.00
35551;BME280;21655;46.056;13.616;2023-04-27T03:01:17;100530.91;;;10.75;100.00
35551;BME280;21655;46.056;13.616;2023-04-27T03:03:46;100529.66;;;10.85;100.00
35551;BME280;21655;46.056;13.616;2023-04-27T03:06:12;100527.09;;;10.84;100.00
35551;BME280;21655;46.056;13.616;2023-04-27T03:08:37;100536.94;;;10.86;100.00
35551;BME280;21655;46.056;13.616;2023-04-27T03:11:03;100541.63;;;10.86;100.00
35551;BME280;21655;46.056;13.616;2023-04-27T03:13:28;100546.13;;;10.87;100.00
35551;BME280;21655;46.056;13.616;2023-04-27T03:15:54;100532.78;;;10.90;100.00
35551;BME280;21655;46.056;13.616;2023-04-27T03:18:19;100539.34;;;10.97;100.00
35551;BME280;21655;46.056;13.616;2023-04-27T03:20:45;100537.94;;;11.01;100.00
35551;BME280;21655;46.056;13.616;2023-04-27T03:23:11;100541.59;;;11.02;100.00
35551;BME280;21655;46.056;13.616;2023-04-27T03:25:36;100531.81;;;11.14;100.00
35551;BME280;21655;46.056;13.616;2023-04-27T03:28:01;100532.09;;;11.26;100.00
35551;BME280;21655;46.056;13.616;2023-04-27T03:30:27;100531.31;;;11.48;100.00
35551;BME280;21655;46.056;13.616;2023-04-27T03:32:52;100530.56;;;11.62;100.00
35551;BME280;21655;46.056;13.616;2023-04-27T03:35:18;100529.41;;;11.79;100.00
35551;BME280;21655;46.056;13.616;2023-04-27T03:37:44;100531.19;;;11.95;100.00
35551;BME280;21655;46.056;13.616;2023-04-27T03:40:10;100531.50;;;12.00;100.00
35551;BME280;21655;46.056;13.616;2023-04-27T03:42:36;100534.28;;;12.00;100.00
35551;BME280;21655;46.056;13.616;2023-04-27T03:45:02;100539.13;;;12.06;100.00
35551;BME280;21655;46.056;13.616;2023-04-27T03:47:28;100535.97;;;12.09;100.00
35551;BME280;21655;46.056;13.616;2023-04-27T03:49:53;100547.56;;;12.12;100.00
35551;BME280;21655;46.056;13.616;2023-04-27T03:52:18;100542.31;;;12.17;100.00
35551;BME280;21655;46.056;13.616;2023-04-27T03:54:44;100547.19;;;12.15;100.00
35551;BME280;21655;46.056;13.616;2023-04-27T03:57:09;100550.44;;;12.19;100.00
35551;BME280;21655;46.056;13.616;2023-04-27T03:59:35;100556.00;;;12.19;100.00
35551;BME280;21655;46.056;13.616;2023-04-27T04:02:00;100562.06;;;12.22;100.00
35551;BME280;21655;46.056;13.616;2023-04-27T04:04:27;100561.00;;;12.23;100.00
35551;BME280;21655;46.056;13.616;2023-04-27T04:06:53;100564.69;;;12.24;100.00
35551;BME280;21655;46.056;13.616;2023-04-27T04:09:18;100562.75;;;12.24;100.00
35551;BME280;21655;46.056;13.616;2023-04-27T04:11:44;100563.63;;;12.25;100.00
35551;BME280;21655;46.056;13.616;2023-04-27T04:14:09;100560.56;;;12.20;100.00
35551;BME280;21655;46.056;13.616;2023-04-27T04:16:35;100567.63;;;12.22;100.00
35551;BME280;21655;46.056;13.616;2023-04-27T04:19:00;100567.25;;;12.25;100.00
35551;BME280;21655;46.056;13.616;2023-04-27T04:21:26;100570.25;;;12.24;100.00
35551;BME280;21655;46.056;13.616;2023-04-27T04:23:51;100561.56;;;12.19;100.00
35551;BME280;21655;46.056;13.616;2023-04-27T04:26:17;100553.22;;;12.19;100.00
35551;BME280;21655;46.056;13.616;2023-04-27T04:28:42;100566.84;;;12.14;100.00
35551;BME280;21655;46.056;13.616;2023-04-27T04:31:08;100568.13;;;12.03;100.00
35551;BME280;21655;46.056;13.616;2023-04-27T04:33:33;100574.22;;;11.99;100.00
35551;BME280;21655;46.056;13.616;2023-04-27T04:36:02;100573.69;;;12.03;100.00
35551;BME280;21655;46.056;13.616;2023-04-27T04:38:28;100582.19;;;12.02;100.00
35551;BME280;21655;46.056;13.616;2023-04-27T04:40:53;100592.09;;;12.04;100.00
35551;BME280;21655;46.056;13.616;2023-04-27T04:43:18;100581.34;;;12.01;100.00
35551;BME280;21655;46.056;13.616;2023-04-27T04:45:44;100588.25;;;12.05;100.00
35551;BME280;21655;46.056;13.616;2023-04-27T04:48:13;100588.94;;;12.07;100.00
35551;BME280;21655;46.056;13.616;2023-04-27T04:50:38;100597.72;;;12.19;100.00
35551;BME280;21655;46.056;13.616;2023-04-27T04:53:06;100600.44;;;12.27;100.00
35551;BME280;21655;46.056;13.616;2023-04-27T04:55:31;100592.22;;;12.33;100.00
35551;BME280;21655;46.056;13.616;2023-04-27T04:57:57;100593.78;;;12.36;100.00
35551;BME280;21655;46.056;13.616;2023-04-27T05:00:22;100588.53;;;12.41;100.00
35551;BME280;21655;46.056;13.616;2023-04-27T05:02:47;100579.63;;;12.45;100.00
35551;BME280;21655;46.056;13.616;2023-04-27T05:05:13;100583.91;;;12.48;100.00
35551;BME280;21655;46.056;13.616;2023-04-27T05:07:38;100589.09;;;12.51;100.00
35551;BME280;21655;46.056;13.616;2023-04-27T05:10:04;100591.84;;;12.59;100.00
35551;BME280;21655;46.056;13.616;2023-04-27T05:12:29;100594.34;;;12.68;100.00
35551;BME280;21655;46.056;13.616;2023-04-27T05:14:55;100593.31;;;12.84;100.00
35551;BME280;21655;46.056;13.616;2023-04-27T05:17:20;100587.34;;;12.95;100.00
35551;BME280;21655;46.056;13.616;2023-04-27T05:19:46;100598.28;;;12.96;100.00
35551;BME280;21655;46.056;13.616;2023-04-27T05:22:11;100602.59;;;12.99;100.00
35551;BME280;21655;46.056;13.616;2023-04-27T05:24:37;100609.59;;;12.95;100.00
35551;BME280;21655;46.056;13.616;2023-04-27T05:27:02;100607.06;;;12.85;100.00
35551;BME280;21655;46.056;13.616;2023-04-27T05:29:28;100596.41;;;12.89;100.00
35551;BME280;21655;46.056;13.616;2023-04-27T05:31:53;100595.75;;;12.87;100.00
35551;BME280;21655;46.056;13.616;2023-04-27T05:34:19;100597.63;;;12.94;100.00
35551;BME280;21655;46.056;13.616;2023-04-27T05:36:45;100610.09;;;12.98;100.00
35551;BME280;21655;46.056;13.616;2023-04-27T05:39:11;100613.94;;;12.97;100.00
35551;BME280;21655;46.056;13.616;2023-04-27T05:41:37;100621.72;;;13.02;100.00
35551;BME280;21655;46.056;13.616;2023-04-27T05:44:02;100626.41;;;13.01;100.00
35551;BME280;21655;46.056;13.616;2023-04-27T05:46:28;100626.78;;;12.98;100.00
35551;BME280;21655;46.056;13.616;2023-04-27T05:48:53;100617.78;;;12.96;100.00
35551;BME280;21655;46.056;13.616;2023-04-27T05:51:18;100625.75;;;12.99;100.00
35551;BME280;21655;46.056;13.616;2023-04-27T05:53:44;100619.97;;;13.01;100.00
35551;BME280;21655;46.056;13.616;2023-04-27T05:56:10;100624.50;;;13.02;100.00
35551;BME280;21655;46.056;13.616;2023-04-27T05:58:36;100636.78;;;13.07;100.00
35551;BME280;21655;46.056;13.616;2023-04-27T06:01:02;100626.63;;;13.14;100.00
35551;BME280;21655;46.056;13.616;2023-04-27T06:03:30;100629.03;;;13.17;100.00
35551;BME280;21655;46.056;13.616;2023-04-27T06:05:58;100629.53;;;13.20;100.00
35551;BME280;21655;46.056;13.616;2023-04-27T06:08:24;100634.22;;;13.20;100.00
35551;BME280;21655;46.056;13.616;2023-04-27T06:10:50;100623.56;;;13.23;100.00
35551;BME280;21655;46.056;13.616;2023-04-27T06:13:16;100633.19;;;13.35;100.00
35551;BME280;21655;46.056;13.616;2023-04-27T06:15:41;100625.97;;;13.26;100.00
35551;BME280;21655;46.056;13.616;2023-04-27T06:18:07;100634.03;;;13.36;100.00
35551;BME280;21655;46.056;13.616;2023-04-27T06:20:32;100619.81;;;13.45;100.00
35551;BME280;21655;46.056;13.616;2023-04-27T06:22:59;100622.50;;;13.53;100.00
35551;BME280;21655;46.056;13.616;2023-04-27T06:25:25;100621.06;;;13.57;100.00
35551;BME280;21655;46.056;13.616;2023-04-27T06:27:53;100619.81;;;13.45;100.00
35551;BME280;21655;46.056;13.616;2023-04-27T06:30:18;100629.22;;;13.73;100.00
35551;BME280;21655;46.056;13.616;2023-04-27T06:32:43;100615.41;;;14.01;100.00
35551;BME280;21655;46.056;13.616;2023-04-27T06:35:10;100627.13;;;14.11;100.00
35551;BME280;21655;46.056;13.616;2023-04-27T06:37:35;100616.56;;;13.92;100.00
35551;BME280;21655;46.056;13.616;2023-04-27T06:40:01;100624.44;;;14.03;100.00
35551;BME280;21655;46.056;13.616;2023-04-27T06:42:26;100619.19;;;13.93;100.00
35551;BME280;21655;46.056;13.616;2023-04-27T06:44:54;100624.44;;;14.03;100.00
35551;BME280;21655;46.056;13.616;2023-04-27T06:47:21;100620.47;;;14.26;100.00
35551;BME280;21655;46.056;13.616;2023-04-27T06:49:46;100632.00;;;14.59;100.00
35551;BME280;21655;46.056;13.616;2023-04-27T06:52:12;100636.44;;;14.74;100.00
35551;BME280;21655;46.056;13.616;2023-04-27T06:54:37;100636.56;;;14.87;100.00
35551;BME280;21655;46.056;13.616;2023-04-27T06:57:03;100648.75;;;15.07;100.00
35551;BME280;21655;46.056;13.616;2023-04-27T06:59:28;100641.06;;;14.88;100.00
35551;BME280;21655;46.056;13.616;2023-04-27T07:01:53;100647.72;;;14.87;100.00
35551;BME280;21655;46.056;13.616;2023-04-27T07:04:19;100639.63;;;14.71;100.00
35551;BME280;21655;46.056;13.616;2023-04-27T07:06:44;100639.06;;;14.82;100.00
35551;BME280;21655;46.056;13.616;2023-04-27T07:09:10;100629.84;;;14.82;100.00
35551;BME280;21655;46.056;13.616;2023-04-27T07:11:36;100632.22;;;14.85;100.00
35551;BME280;21655;46.056;13.616;2023-04-27T07:14:01;100632.88;;;15.07;100.00
35551;BME280;21655;46.056;13.616;2023-04-27T07:16:27;100625.44;;;15.21;100.00
35551;BME280;21655;46.056;13.616;2023-04-27T07:18:52;100629.75;;;15.23;100.00
35551;BME280;21655;46.056;13.616;2023-04-27T07:21:17;100641.00;;;15.30;100.00
35551;BME280;21655;46.056;13.616;2023-04-27T07:23:43;100635.50;;;15.43;100.00
35551;BME280;21655;46.056;13.616;2023-04-27T07:26:10;100641.94;;;15.37;100.00
35551;BME280;21655;46.056;13.616;2023-04-27T07:28:36;100636.09;;;15.66;100.00
35551;BME280;21655;46.056;13.616;2023-04-27T07:31:05;100632.47;;;15.72;100.00
35551;BME280;21655;46.056;13.616;2023-04-27T07:33:33;100636.16;;;15.79;100.00
35551;BME280;21655;46.056;13.616;2023-04-27T07:35:59;100634.19;;;16.20;100.00
35551;BME280;21655;46.056;13.616;2023-04-27T07:38:26;100630.19;;;15.88;100.00
35551;BME280;21655;46.056;13.616;2023-04-27T07:40:53;100630.13;;;16.29;100.00
35551;BME280;21655;46.056;13.616;2023-04-27T07:43:18;100628.66;;;16.33;100.00
35551;BME280;21655;46.056;13.616;2023-04-27T07:45:44;100632.41;;;16.53;99.43
35551;BME280;21655;46.056;13.616;2023-04-27T07:48:10;100628.34;;;16.75;96.97
35551;BME280;21655;46.056;13.616;2023-04-27T07:50:35;100629.63;;;16.85;100.00
35551;BME280;21655;46.056;13.616;2023-04-27T07:53:01;100630.94;;;17.08;99.85
35551;BME280;21655;46.056;13.616;2023-04-27T07:55:26;100633.31;;;16.99;91.61
35551;BME280;21655;46.056;13.616;2023-04-27T07:57:53;100634.19;;;17.25;92.10
35551;BME280;21655;46.056;13.616;2023-04-27T08:00:19;100637.22;;;17.36;83.61
35551;BME280;21655;46.056;13.616;2023-04-27T08:02:44;100634.59;;;17.28;90.54
35551;BME280;21655;46.056;13.616;2023-04-27T08:05:10;100627.41;;;17.84;88.34
35551;BME280;21655;46.056;13.616;2023-04-27T08:07:36;100624.72;;;18.09;87.08
35551;BME280;21655;46.056;13.616;2023-04-27T08:10:01;100620.47;;;19.05;79.87
35551;BME280;21655;46.056;13.616;2023-04-27T08:12:27;100620.13;;;19.69;69.80
35551;BME280;21655;46.056;13.616;2023-04-27T08:14:53;100612.75;;;19.50;67.47
35551;BME280;21655;46.056;13.616;2023-04-27T08:17:18;100611.03;;;19.49;65.93
35551;BME280;21655;46.056;13.616;2023-04-27T08:19:45;100614.41;;;19.93;64.62
35551;BME280;21655;46.056;13.616;2023-04-27T08:22:10;100611.03;;;20.39;63.57
35551;BME280;21655;46.056;13.616;2023-04-27T08:24:36;100606.44;;;21.37;59.30
35551;BME280;21655;46.056;13.616;2023-04-27T08:27:01;100611.38;;;21.30;59.66
35551;BME280;21655;46.056;13.616;2023-04-27T08:29:27;100606.66;;;21.13;58.23
35551;BME280;21655;46.056;13.616;2023-04-27T08:31:53;100610.88;;;21.56;56.78
35551;BME280;21655;46.056;13.616;2023-04-27T08:34:19;100617.88;;;21.42;55.10
35551;BME280;21655;46.056;13.616;2023-04-27T08:36:44;100607.25;;;21.03;55.72
35551;BME280;21655;46.056;13.616;2023-04-27T08:39:10;100614.03;;;21.14;56.80
35551;BME280;21655;46.056;13.616;2023-04-27T08:41:41;100606.38;;;21.78;55.38
35551;BME280;21655;46.056;13.616;2023-04-27T08:44:06;100602.53;;;21.96;55.78
35551;BME280;21655;46.056;13.616;2023-04-27T08:46:32;100595.53;;;21.41;58.43
35551;BME280;21655;46.056;13.616;2023-04-27T08:48:57;100595.66;;;21.11;55.09
35551;BME280;21655;46.056;13.616;2023-04-27T08:51:23;100599.22;;;21.87;52.63
35551;BME280;21655;46.056;13.616;2023-04-27T08:53:56;100603.06;;;21.70;53.36
35551;BME280;21655;46.056;13.616;2023-04-27T08:56:26;100613.59;;;20.88;52.94
35551;BME280;21655;46.056;13.616;2023-04-27T08:58:52;100607.03;;;21.16;57.01
35551;BME280;21655;46.056;13.616;2023-04-27T09:01:18;100597.13;;;21.37;55.69
35551;BME280;21655;46.056;13.616;2023-04-27T09:03:44;100598.88;;;21.84;52.20
35551;BME280;21655;46.056;13.616;2023-04-27T09:06:13;100604.28;;;21.74;51.03
35551;BME280;21655;46.056;13.616;2023-04-27T09:08:45;100618.38;;;22.48;50.82
35551;BME280;21655;46.056;13.616;2023-04-27T09:11:15;100602.03;;;22.78;47.05
35551;BME280;21655;46.056;13.616;2023-04-27T09:13:51;100606.63;;;22.28;48.45
35551;BME280;21655;46.056;13.616;2023-04-27T09:16:22;100608.53;;;21.30;49.06
35551;BME280;21655;46.056;13.616;2023-04-27T09:18:48;100613.91;;;21.09;52.35
35551;BME280;21655;46.056;13.616;2023-04-27T09:21:25;100615.06;;;20.13;51.97
35551;BME280;21655;46.056;13.616;2023-04-27T09:23:50;100617.63;;;19.97;53.62
35551;BME280;21655;46.056;13.616;2023-04-27T09:26:21;100618.03;;;19.40;55.63
35551;BME280;21655;46.056;13.616;2023-04-27T09:28:49;100615.09;;;19.28;56.76
35551;BME280;21655;46.056;13.616;2023-04-27T09:31:15;100618.84;;;19.22;58.51
35551;BME280;21655;46.056;13.616;2023-04-27T09:33:42;100620.78;;;19.22;57.97
35551;BME280;21655;46.056;13.616;2023-04-27T09:36:08;100616.91;;;18.92;59.29
35551;BME280;21655;46.056;13.616;2023-04-27T09:38:33;100620.78;;;18.91;63.12
35551;BME280;21655;46.056;13.616;2023-04-27T09:40:59;100620.97;;;18.72;59.89
35551;BME280;21655;46.056;13.616;2023-04-27T09:43:25;100614.28;;;18.66;61.75
35551;BME280;21655;46.056;13.616;2023-04-27T09:45:54;100620.38;;;18.63;61.36
35551;BME280;21655;46.056;13.616;2023-04-27T09:48:21;100625.16;;;18.56;61.24
35551;BME280;21655;46.056;13.616;2023-04-27T09:50:48;100621.50;;;18.56;62.59
35551;BME280;21655;46.056;13.616;2023-04-27T09:53:17;100620.38;;;18.63;61.57
35551;BME280;21655;46.056;13.616;2023-04-27T09:55:48;100615.78;;;18.69;61.47
35551;BME280;21655;46.056;13.616;2023-04-27T10:09:11;100615.19;;;19.15;60.48
35551;BME280;21655;46.056;13.616;2023-04-27T10:11:40;100614.63;;;19.07;61.41
35551;BME280;21655;46.056;13.616;2023-04-27T10:14:08;100614.41;;;19.08;61.38
35551;BME280;21655;46.056;13.616;2023-04-27T10:16:57;100609.63;;;19.09;60.65
35551;BME280;21655;46.056;13.616;2023-04-27T10:19:23;100607.31;;;18.99;65.62
35551;BME280;21655;46.056;13.616;2023-04-27T10:21:59;100608.22;;;19.49;64.63
35551;BME280;21655;46.056;13.616;2023-04-27T10:24:48;100609.66;;;19.94;58.96
35551;BME280;21655;46.056;13.616;2023-04-27T10:27:18;100603.66;;;20.08;58.41
35551;BME280;21655;46.056;13.616;2023-04-27T10:29:46;100595.28;;;20.02;57.97
35551;BME280;21655;46.056;13.616;2023-04-27T10:32:24;100599.63;;;20.34;53.50
35551;BME280;21655;46.056;13.616;2023-04-27T10:35:03;100591.41;;;20.32;54.01
35551;BME280;21655;46.056;13.616;2023-04-27T10:37:42;100591.31;;;20.39;53.41
35551;BME280;21655;46.056;13.616;2023-04-27T10:40:10;100592.56;;;21.13;51.29
35551;BME280;21655;46.056;13.616;2023-04-27T10:42:39;100585.13;;;21.76;50.26
35551;BME280;21655;46.056;13.616;2023-04-27T10:45:05;100588.09;;;22.60;48.50
35551;BME280;21655;46.056;13.616;2023-04-27T10:47:39;100585.22;;;22.32;44.75
35551;BME280;21655;46.056;13.616;2023-04-27T10:50:05;100586.81;;;22.00;46.24
35551;BME280;21655;46.056;13.616;2023-04-27T10:52:31;100577.00;;;22.70;45.17
35551;BME280;21655;46.056;13.616;2023-04-27T10:54:57;100566.72;;;24.17;42.48
35551;BME280;21655;46.056;13.616;2023-04-27T10:57:23;100570.88;;;25.63;36.21
35551;BME280;21655;46.056;13.616;2023-04-27T11:02:14;100561.00;;;24.55;38.18
35551;BME280;21655;46.056;13.616;2023-04-27T11:04:40;100565.59;;;23.42;38.79
35551;BME280;21655;46.056;13.616;2023-04-27T11:07:09;100562.50;;;22.66;41.05
35551;BME280;21655;46.056;13.616;2023-04-27T11:09:36;100566.50;;;22.14;44.92
35551;BME280;21655;46.056;13.616;2023-04-27T11:12:05;100556.69;;;23.33;40.81
35551;BME280;21655;46.056;13.616;2023-04-27T11:14:31;100560.31;;;24.48;36.97
35551;BME280;21655;46.056;13.616;2023-04-27T11:16:57;100548.16;;;25.00;36.76
35551;BME280;21655;46.056;13.616;2023-04-27T11:19:22;100552.56;;;24.60;36.57
35551;BME280;21655;46.056;13.616;2023-04-27T11:21:48;100552.16;;;23.70;39.21
35551;BME280;21655;46.056;13.616;2023-04-27T11:24:13;100542.06;;;22.48;40.53
35551;BME280;21655;46.056;13.616;2023-04-27T11:26:39;100549.19;;;22.11;41.58
35551;BME280;21655;46.056;13.616;2023-04-27T11:29:07;100549.28;;;21.65;42.46
35551;BME280;21655;46.056;13.616;2023-04-27T11:31:39;100545.22;;;21.72;40.87
35551;BME280;21655;46.056;13.616;2023-04-27T11:34:06;100532.28;;;21.99;41.32
35551;BME280;21655;46.056;13.616;2023-04-27T11:36:32;100530.88;;;21.28;40.64
35551;BME280;21655;46.056;13.616;2023-04-27T11:38:58;100542.53;;;21.43;39.35
35551;BME280;21655;46.056;13.616;2023-04-27T11:41:32;100529.28;;;21.09;39.15
35551;BME280;21655;46.056;13.616;2023-04-27T11:44:03;100536.75;;;21.15;38.97
35551;BME280;21655;46.056;13.616;2023-04-27T11:46:30;100535.47;;;20.77;38.36
35551;BME280;21655;46.056;13.616;2023-04-27T11:49:00;100534.47;;;20.71;39.07
35551;BME280;21655;46.056;13.616;2023-04-27T11:51:28;100551.91;;;20.50;38.55
35551;BME280;21655;46.056;13.616;2023-04-27T11:53:54;100539.25;;;20.82;39.51
35551;BME280;21655;46.056;13.616;2023-04-27T11:56:19;100533.88;;;20.69;38.81
35551;BME280;21655;46.056;13.616;2023-04-27T11:58:45;100533.34;;;21.36;39.32
35551;BME280;21655;46.056;13.616;2023-04-27T12:01:11;100534.56;;;21.63;36.62
35551;BME280;21655;46.056;13.616;2023-04-27T12:03:37;100538.91;;;20.79;38.26
35551;BME280;21655;46.056;13.616;2023-04-27T12:06:02;100532.69;;;20.88;38.95
35551;BME280;21655;46.056;13.616;2023-04-27T12:08:28;100535.63;;;20.93;38.81
35551;BME280;21655;46.056;13.616;2023-04-27T12:10:54;100528.34;;;20.74;40.35
35551;BME280;21655;46.056;13.616;2023-04-27T12:13:20;100537.97;;;20.85;39.61
35551;BME280;21655;46.056;13.616;2023-04-27T12:15:45;100534.69;;;21.22;39.52
35551;BME280;21655;46.056;13.616;2023-04-27T12:18:11;100528.88;;;21.86;38.64
35551;BME280;21655;46.056;13.616;2023-04-27T12:20:36;100528.88;;;22.25;37.65
35551;BME280;21655;46.056;13.616;2023-04-27T12:23:01;100532.22;;;21.02;40.41
35551;BME280;21655;46.056;13.616;2023-04-27T12:25:27;100534.06;;;21.08;41.12
35551;BME280;21655;46.056;13.616;2023-04-27T12:27:53;100528.19;;;20.99;41.48
35551;BME280;21655;46.056;13.616;2023-04-27T12:30:19;100540.53;;;20.86;42.12
35551;BME280;21655;46.056;13.616;2023-04-27T12:32:45;100532.22;;;20.91;40.37
35551;BME280;21655;46.056;13.616;2023-04-27T12:35:11;100527.94;;;21.23;41.37
35551;BME280;21655;46.056;13.616;2023-04-27T12:37:37;100532.25;;;21.37;40.58
35551;BME280;21655;46.056;13.616;2023-04-27T12:40:03;100533.31;;;21.02;41.04
35551;BME280;21655;46.056;13.616;2023-04-27T12:42:31;100531.00;;;20.28;41.44